Time;durP1;ratioP1;P1;durP2;ratioP2;P2;SDS_P1;SDS_P2;PMS_P1;PMS_P2;Temp;Humidity;BMP_temperature;BMP_pressure;BME280_temperature;BME280_humidity;BME280_pressure;Samples;Min_cycle;Max_cycle;Signal;HPM_P1;HPM_P2
2022/10/31 00:02:05;;;;;;;15.07;8.65;;;;;;;14.38;76.32;101950.75;4803931;29;20035;-87
2022/10/31 00:04:30;;;;;;;15.90;9.27;;;;;;;14.45;77.11;101970.84;4787727;30;20039;-87
2022/10/31 00:06:55;;;;;;;19.25;10.43;;;;;;;14.31;77.87;101960.72;4787763;29;20047;-86
2022/10/31 00:09:21;;;;;;;18.25;10.48;;;;;;;14.20;77.42;101952.31;4783609;29;20034;-86
2022/10/31 00:11:46;;;;;;;16.48;9.52;;;;;;;14.17;77.20;101950.59;4794450;29;20480;-86
2022/10/31 00:14:11;;;;;;;14.60;9.15;;;;;;;14.18;77.75;101973.66;4805424;29;20043;-86
2022/10/31 00:16:37;;;;;;;16.75;9.20;;;;;;;14.10;77.50;101970.41;4805449;29;20035;-88
2022/10/31 00:19:05;;;;;;;17.17;9.07;;;;;;;14.11;78.03;101977.44;4785541;29;20083;-86
2022/10/31 00:21:32;;;;;;;17.77;10.52;;;;;;;14.05;77.93;101972.34;4775891;30;20481;-86
2022/10/31 00:23:58;;;;;;;18.02;9.18;;;;;;;14.06;77.47;101975.88;4783197;29;20472;-87
2022/10/31 00:26:24;;;;;;;17.70;10.05;;;;;;;13.90;78.32;101962.28;4760965;29;20469;-87
2022/10/31 00:28:50;;;;;;;17.00;9.52;;;;;;;13.91;77.52;101962.22;4782201;30;20034;-87
2022/10/31 00:31:16;;;;;;;16.85;9.90;;;;;;;13.86;77.77;101958.88;4786632;29;20488;-86
2022/10/31 00:33:42;;;;;;;14.70;9.07;;;;;;;13.84;77.12;101965.16;4775078;30;20111;-86
2022/10/31 00:36:10;;;;;;;13.75;8.75;;;;;;;13.83;77.13;101964.28;4780598;29;20039;-86
2022/10/31 00:38:36;;;;;;;16.83;9.10;;;;;;;13.76;77.44;101961.00;4757429;30;20056;-87
2022/10/31 00:41:01;;;;;;;14.13;9.50;;;;;;;13.78;78.04;101960.91;4769088;30;20028;-86
2022/10/31 00:43:26;;;;;;;17.00;9.88;;;;;;;13.69;78.41;101962.09;4774173;30;20119;-86
2022/10/31 00:45:51;;;;;;;15.82;9.65;;;;;;;13.59;78.35;101947.41;4785543;30;20693;-86
2022/10/31 00:48:17;;;;;;;15.63;9.00;;;;;;;13.55;78.63;101950.22;4772917;30;20050;-87
2022/10/31 00:50:43;;;;;;;12.18;8.52;;;;;;;13.43;78.48;101947.09;4768948;30;20058;-87
2022/10/31 00:53:08;;;;;;;17.80;8.88;;;;;;;13.41;78.13;101938.28;4769948;30;20473;-87
2022/10/31 00:55:34;;;;;;;13.85;8.18;;;;;;;13.42;77.85;101933.84;4780465;29;20111;-87
2022/10/31 00:57:59;;;;;;;13.18;8.43;;;;;;;13.42;78.75;101941.81;4781987;30;20039;-86
2022/10/31 01:00:25;;;;;;;13.30;8.57;;;;;;;13.59;77.34;101955.38;4785733;29;20055;-87
2022/10/31 01:02:50;;;;;;;11.23;8.35;;;;;;;13.51;77.07;101939.69;4777283;29;20083;-87
2022/10/31 01:05:16;;;;;;;14.38;8.95;;;;;;;13.62;77.02;101949.97;4771565;29;20031;-87
2022/10/31 01:07:42;;;;;;;14.68;8.13;;;;;;;13.72;77.14;101971.78;4785410;29;20027;-86
2022/10/31 01:10:08;;;;;;;12.98;8.27;;;;;;;13.74;77.03;101968.13;4784975;29;20028;-86
2022/10/31 01:12:41;;;;;;;11.38;8.27;;;;;;;13.82;76.64;101962.56;4784385;30;20075;-87
2022/10/31 01:15:07;;;;;;;15.43;9.40;;;;;;;13.66;76.95;101932.09;4776237;29;20081;-87
2022/10/31 01:17:33;;;;;;;15.07;9.05;;;;;;;13.62;76.35;101946.44;4771713;30;20042;-87
2022/10/31 01:19:58;;;;;;;14.77;9.13;;;;;;;13.50;78.05;101937.09;4768620;30;20063;-86
2022/10/31 01:22:23;;;;;;;11.75;7.68;;;;;;;13.32;77.89;101912.03;4783802;29;20419;-87
2022/10/31 01:24:48;;;;;;;9.02;7.13;;;;;;;13.28;78.68;101913.94;4774578;30;20035;-87
2022/10/31 01:27:14;;;;;;;10.02;6.80;;;;;;;13.26;78.29;101925.53;4774070;30;20473;-86
2022/10/31 01:29:39;;;;;;;13.77;7.40;;;;;;;13.18;78.09;101920.44;4786505;29;20039;-88
2022/10/31 01:32:04;;;;;;;11.15;7.47;;;;;;;13.38;78.04;101937.53;4773457;30;20031;-87
2022/10/31 01:34:30;;;;;;;13.27;8.35;;;;;;;13.19;78.84;101930.13;4768573;30;20035;-86
2022/10/31 01:36:55;;;;;;;9.48;6.30;;;;;;;13.12;78.09;101930.41;4777400;30;20047;-88
2022/10/31 01:39:20;;;;;;;10.43;6.85;;;;;;;12.96;77.97;101922.97;4763193;30;20396;-87
2022/10/31 01:41:48;;;;;;;10.93;8.02;;;;;;;12.85;79.00;101942.78;4770073;30;20036;-87
2022/10/31 01:44:13;;;;;;;12.52;8.63;;;;;;;12.85;79.00;101953.41;4779173;29;20031;-86
2022/10/31 01:46:44;;;;;;;11.00;8.27;;;;;;;12.79;79.09;101951.81;4773454;30;20032;-86
2022/10/31 01:49:28;;;;;;;13.95;8.30;;;;;;;12.87;79.39;101952.47;4774304;29;20308;-86
2022/10/31 01:51:58;;;;;;;11.95;7.85;;;;;;;12.77;78.47;101945.69;4791764;29;20023;-86
2022/10/31 01:54:30;;;;;;;13.80;7.88;;;;;;;12.79;78.30;101935.91;4766701;30;20031;-86
2022/10/31 01:56:57;;;;;;;9.23;6.57;;;;;;;12.88;77.62;101938.25;4779744;30;20074;-86
2022/10/31 01:59:27;;;;;;;9.88;6.88;;;;;;;12.88;79.33;101948.03;4778953;30;20030;-87
2022/10/31 02:01:53;;;;;;;11.80;7.20;;;;;;;12.88;79.40;101948.03;4784368;29;20035;-87
2022/10/31 02:04:21;;;;;;;11.02;8.13;;;;;;;12.84;79.60;101939.28;4783949;29;20035;-87
2022/10/31 02:06:56;;;;;;;13.65;8.52;;;;;;;12.86;78.35;101940.09;4773550;29;20077;-87
2022/10/31 02:09:23;;;;;;;11.65;8.57;;;;;;;12.80;78.50;101932.31;4784852;29;20535;-86
2022/10/31 02:11:52;;;;;;;15.30;9.55;;;;;;;12.89;78.43;101921.41;4782915;30;20028;-87
2022/10/31 02:14:18;;;;;;;11.50;8.07;;;;;;;12.87;77.43;101914.41;4772505;29;20027;-87
2022/10/31 02:16:43;;;;;;;13.55;8.43;;;;;;;12.75;78.63;101926.31;4777945;29;20039;-86
2022/10/31 02:19:15;;;;;;;14.43;8.75;;;;;;;12.59;78.87;101923.28;4788768;29;20066;-86
2022/10/31 02:22:00;;;;;;;12.30;7.60;;;;;;;12.70;78.60;101941.50;4792142;29;20047;-86
2022/10/31 02:24:44;;;;;;;11.38;7.60;;;;;;;12.67;78.14;101934.50;4786594;29;20512;-86
2022/10/31 02:27:09;;;;;;;11.07;7.60;;;;;;;12.68;79.50;101933.59;4791816;29;20441;-86
2022/10/31 02:29:37;;;;;;;10.43;7.87;;;;;;;12.63;79.01;101940.81;4791598;29;20466;-87
2022/10/31 02:32:26;;;;;;;12.02;7.95;;;;;;;12.53;78.39;101920.78;4797224;29;20320;-86
2022/10/31 02:35:02;;;;;;;11.68;7.47;;;;;;;12.55;77.84;101918.97;4785303;29;20070;-86
2022/10/31 02:37:38;;;;;;;10.98;7.20;;;;;;;12.71;77.48;101938.78;4775632;29;20032;-86
2022/10/31 02:40:25;;;;;;;9.77;6.95;;;;;;;12.74;77.13;101944.00;4775109;29;20488;-87
2022/10/31 02:43:02;;;;;;;12.70;8.18;;;;;;;12.60;78.56;101937.41;4785141;29;20145;-86
2022/10/31 02:45:38;;;;;;;14.82;9.13;;;;;;;12.42;78.94;101941.47;4773031;29;20026;-87
2022/10/31 02:48:12;;;;;;;11.05;8.20;;;;;;;12.23;79.54;101934.06;4791713;29;20066;-86
2022/10/31 02:50:41;;;;;;;11.10;7.75;;;;;;;12.00;78.93;101925.94;4780757;29;20030;-86
2022/10/31 02:53:06;;;;;;;10.65;7.07;;;;;;;11.95;79.67;101918.09;4777515;29;20078;-86
2022/10/31 02:55:34;;;;;;;12.23;7.38;;;;;;;12.06;79.28;101933.69;4797098;29;20031;-86
2022/10/31 02:58:02;;;;;;;13.13;8.07;;;;;;;12.10;79.91;101929.19;4770031;29;20036;-86
2022/10/31 03:00:33;;;;;;;9.35;6.97;;;;;;;12.11;79.18;101907.06;4795710;29;20058;-86
2022/10/31 03:03:14;;;;;;;9.82;7.85;;;;;;;12.36;78.36;101939.03;4797657;29;20035;-86
2022/10/31 03:05:52;;;;;;;13.02;8.85;;;;;;;12.45;79.62;101939.63;4786274;29;20123;-86
2022/10/31 03:08:35;;;;;;;10.55;8.13;;;;;;;12.53;78.68;101939.34;4790348;29;20031;-86
2022/10/31 03:11:03;;;;;;;12.43;7.32;;;;;;;12.51;78.32;101946.50;4789945;29;20031;-86
2022/10/31 03:13:39;;;;;;;10.73;6.97;;;;;;;12.49;77.87;101943.00;4785364;29;20117;-86
2022/10/31 03:16:14;;;;;;;10.05;7.60;;;;;;;12.45;77.80;101930.75;4790780;29;20039;-86
2022/10/31 03:18:43;;;;;;;8.73;6.60;;;;;;;12.55;77.53;101944.63;4786731;29;20059;-87
2022/10/31 03:21:14;;;;;;;12.98;8.25;;;;;;;12.56;78.84;101930.44;4780765;29;20031;-88
2022/10/31 03:23:43;;;;;;;10.27;8.13;;;;;;;12.49;79.35;101924.44;4801194;29;20432;-86
2022/10/31 03:26:11;;;;;;;12.60;7.65;;;;;;;12.55;78.51;101944.63;4797817;29;20038;-86
2022/10/31 03:28:43;;;;;;;11.50;7.70;;;;;;;12.48;77.79;101936.84;4798947;29;20035;-86
2022/10/31 03:31:10;;;;;;;9.88;7.72;;;;;;;12.32;78.93;101921.47;4799740;29;20030;-87
2022/10/31 03:33:38;;;;;;;11.20;7.28;;;;;;;12.37;78.04;101944.28;4783356;30;20114;-86
2022/10/31 03:36:07;;;;;;;9.35;7.53;;;;;;;12.31;78.33;101943.56;4790040;29;20042;-86
2022/10/31 03:38:35;;;;;;;12.38;7.78;;;;;;;12.21;79.72;101929.72;4781916;29;20036;-87
2022/10/31 03:41:05;;;;;;;12.70;8.40;;;;;;;12.21;79.55;101933.22;4779366;30;20035;-86
2022/10/31 03:43:36;;;;;;;12.68;8.57;;;;;;;12.13;79.56;101915.84;4798100;29;20480;-86
2022/10/31 03:46:04;;;;;;;13.77;8.80;;;;;;;12.25;79.03;101928.72;4780922;29;20121;-86
2022/10/31 03:48:29;;;;;;;14.73;8.73;;;;;;;12.19;79.00;101926.25;4782648;29;20031;-86
2022/10/31 03:51:27;;;;;;;12.88;8.57;;;;;;;12.27;78.86;101934.84;4788544;29;20027;-86
2022/10/31 03:53:57;;;;;;;17.85;9.85;;;;;;;12.23;78.33;101936.72;4751547;29;20043;-86
2022/10/31 03:56:34;;;;;;;15.43;9.23;;;;;;;12.07;79.44;101919.50;4800796;29;20039;-86
2022/10/31 03:59:06;;;;;;;15.02;8.70;;;;;;;12.10;79.18;101922.09;4797255;29;20376;-86
2022/10/31 04:01:36;;;;;;;16.48;7.88;;;;;;;11.92;78.89;101901.41;4785664;29;20091;-86
2022/10/31 04:04:02;;;;;;;12.95;7.55;;;;;;;11.95;77.91;101904.84;4795630;29;20652;-86
2022/10/31 04:06:27;;;;;;;15.38;10.38;;;;;;;12.02;80.72;101918.78;4774763;29;20062;-87
2022/10/31 04:09:00;;;;;;;17.38;10.18;;;;;;;11.98;81.18;101927.72;4795966;29;20063;-86
2022/10/31 04:11:30;;;;;;;14.68;8.70;;;;;;;11.94;80.41;101932.28;4778108;29;20091;-86
2022/10/31 04:13:58;;;;;;;16.35;10.48;;;;;;;11.84;81.17;101919.31;4804987;29;20035;-86
2022/10/31 04:16:24;;;;;;;12.38;8.38;;;;;;;11.82;79.66;101916.72;4800680;29;20023;-86
2022/10/31 04:18:50;;;;;;;12.38;8.95;;;;;;;11.72;80.07;101918.72;4797925;29;20047;-86
2022/10/31 04:21:16;;;;;;;16.70;9.50;;;;;;;11.88;81.52;101928.91;4788151;29;20458;-86
2022/10/31 04:23:41;;;;;;;12.73;8.18;;;;;;;11.93;80.42;101938.47;4792790;29;20034;-86
2022/10/31 04:26:10;;;;;;;15.43;9.60;;;;;;;11.87;81.18;101921.88;4763901;29;20030;-85
2022/10/31 04:28:35;;;;;;;16.95;10.15;;;;;;;11.90;81.47;101919.16;4787214;29;20039;-87
2022/10/31 04:31:00;;;;;;;10.23;7.60;;;;;;;11.92;80.08;101928.78;4791748;29;20084;-86
2022/10/31 04:33:26;;;;;;;11.05;8.40;;;;;;;11.86;79.74;101917.50;4777457;30;20085;-86
2022/10/31 04:35:51;;;;;;;11.23;7.20;;;;;;;11.75;79.80;101920.44;4786940;29;20039;-86
2022/10/31 04:38:16;;;;;;;10.38;6.78;;;;;;;11.73;80.27;101922.22;4774092;30;20047;-86
2022/10/31 04:40:41;;;;;;;17.52;10.38;;;;;;;11.93;81.85;101942.91;4785629;29;20072;-86
2022/10/31 04:43:07;;;;;;;17.40;11.63;;;;;;;12.03;81.84;101938.19;4786542;29;20043;-86
2022/10/31 04:45:32;;;;;;;20.65;12.13;;;;;;;11.99;82.15;101932.16;4793074;29;20457;-86
2022/10/31 04:47:57;;;;;;;20.88;12.60;;;;;;;12.11;82.86;101933.56;4777716;30;20511;-86
2022/10/31 04:50:22;;;;;;;29.65;15.02;;;;;;;12.15;83.57;101930.78;4786692;29;20039;-86
2022/10/31 04:52:48;;;;;;;22.70;14.15;;;;;;;12.10;82.99;101913.28;4796622;29;20035;-86
2022/10/31 04:55:13;;;;;;;23.52;14.15;;;;;;;12.16;82.48;101911.28;4775935;29;20496;-86
2022/10/31 04:57:43;;;;;;;18.38;13.13;;;;;;;12.27;82.70;101926.03;4793613;29;20126;-86
2022/10/31 05:00:10;;;;;;;19.65;13.40;;;;;;;12.10;82.75;101935.34;4788123;29;20106;-86
2022/10/31 05:02:46;;;;;;;20.50;14.38;;;;;;;12.10;83.97;101913.28;4786741;30;20039;-86
2022/10/31 05:05:13;;;;;;;22.48;14.20;;;;;;;12.21;82.13;101913.81;4787651;29;20101;-86
2022/10/31 05:07:43;;;;;;;24.10;15.07;;;;;;;12.20;83.03;101912.94;4803721;29;20030;-86
2022/10/31 05:10:10;;;;;;;25.60;15.57;;;;;;;12.18;82.94;101911.28;4786458;29;20039;-86
2022/10/31 05:12:36;;;;;;;24.02;14.05;;;;;;;12.21;82.70;101921.75;4777694;30;20108;-87
2022/10/31 05:15:02;;;;;;;22.38;13.60;;;;;;;12.12;82.28;101898.19;4777295;29;20073;-85
2022/10/31 05:17:27;;;;;;;26.05;14.77;;;;;;;12.10;81.91;101903.53;4786086;29;20035;-86
2022/10/31 05:19:52;;;;;;;25.20;13.32;;;;;;;12.13;82.17;101899.94;4791437;29;20051;-86
2022/10/31 05:22:17;;;;;;;20.83;14.18;;;;;;;12.08;81.80;101910.69;4799660;29;20436;-86
2022/10/31 05:24:43;;;;;;;21.85;13.93;;;;;;;12.06;83.42;101915.13;4804029;29;20042;-86
2022/10/31 05:27:08;;;;;;;20.00;13.57;;;;;;;11.93;82.36;101904.00;4774744;30;20096;-86
2022/10/31 05:29:33;;;;;;;23.20;13.63;;;;;;;11.93;82.31;101919.03;4794040;29;20030;-86
2022/10/31 05:31:59;;;;;;;20.00;12.98;;;;;;;11.91;81.85;101919.09;4798842;29;20102;-86
2022/10/31 05:34:24;;;;;;;22.85;12.50;;;;;;;11.88;81.22;101900.63;4795063;29;20065;-86
2022/10/31 05:36:49;;;;;;;19.25;12.30;;;;;;;11.76;81.60;101890.38;4784243;29;20034;-86
2022/10/31 05:39:15;;;;;;;17.17;11.20;;;;;;;11.82;81.15;101899.91;4792600;29;20039;-86
2022/10/31 05:41:40;;;;;;;17.95;12.02;;;;;;;11.69;80.77;101880.84;4788744;29;20023;-87
2022/10/31 05:44:05;;;;;;;18.48;11.48;;;;;;;11.82;81.04;101899.91;4803707;29;20115;-86
2022/10/31 05:46:30;;;;;;;15.68;10.85;;;;;;;11.77;80.71;101897.41;4792302;29;20461;-87
2022/10/31 05:48:56;;;;;;;16.30;10.27;;;;;;;11.74;80.08;101881.56;4777630;29;20035;-86
2022/10/31 05:51:21;;;;;;;19.27;11.88;;;;;;;11.78;80.48;101885.00;4769459;30;20111;-86
2022/10/31 05:53:47;;;;;;;16.58;9.65;;;;;;;11.67;80.94;101891.50;4786795;29;20099;-86
2022/10/31 05:56:12;;;;;;;15.25;9.43;;;;;;;11.67;80.88;101891.50;4803862;29;20040;-87
2022/10/31 05:58:38;;;;;;;15.75;10.57;;;;;;;11.62;80.79;101879.28;4803747;29;20027;-86
2022/10/31 06:01:03;;;;;;;12.73;8.80;;;;;;;11.67;80.37;101896.78;4785612;29;20095;-86
2022/10/31 06:03:28;;;;;;;20.42;11.48;;;;;;;11.69;82.00;101902.91;4791299;29;20557;-86
2022/10/31 06:05:54;;;;;;;21.73;9.73;;;;;;;11.60;82.17;101879.31;4776306;30;20138;-86
2022/10/31 06:08:19;;;;;;;25.88;11.40;;;;;;;11.69;82.68;101889.66;4769661;30;20031;-86
2022/10/31 06:10:44;;;;;;;39.90;12.00;;;;;;;11.61;82.88;101873.13;4772263;30;20042;-87
2022/10/31 06:13:09;;;;;;;38.33;11.13;;;;;;;11.70;81.53;101882.56;4781452;29;20545;-87
2022/10/31 06:15:35;;;;;;;39.00;11.23;;;;;;;11.70;82.00;101888.75;4785683;29;20038;-86
2022/10/31 06:18:05;;;;;;;37.03;10.68;;;;;;;11.70;82.80;101890.50;4791300;29;20525;-87
2022/10/31 06:20:31;;;;;;;34.53;11.65;;;;;;;11.55;81.62;101867.97;4792406;29;20119;-86
2022/10/31 06:22:56;;;;;;;40.13;11.88;;;;;;;11.60;82.06;101873.16;4790414;29;20087;-86
2022/10/31 06:25:21;;;;;;;50.38;13.40;;;;;;;11.65;83.37;101885.34;4783968;29;20036;-87
2022/10/31 06:27:47;;;;;;;29.90;11.85;;;;;;;11.62;83.22;101879.28;4781385;29;20031;-86
2022/10/31 06:30:12;;;;;;;36.08;14.02;;;;;;;11.62;83.90;101877.50;4795966;29;20110;-86
2022/10/31 06:32:38;;;;;;;24.00;12.50;;;;;;;11.68;83.47;101885.28;4798751;29;20030;-86
2022/10/31 06:35:03;;;;;;;27.75;12.35;;;;;;;11.70;83.37;101882.56;4795809;29;20061;-86
2022/10/31 06:37:29;;;;;;;38.50;14.57;;;;;;;11.72;83.94;101881.63;4798160;29;20023;-87
2022/10/31 06:39:54;;;;;;;25.48;13.65;;;;;;;11.72;83.20;101888.72;4779980;29;20472;-87
2022/10/31 06:42:19;;;;;;;29.83;13.85;;;;;;;11.73;83.49;101890.44;4791323;29;20027;-87
2022/10/31 06:44:44;;;;;;;40.17;13.88;;;;;;;11.72;83.57;101886.94;4785575;29;20037;-86
2022/10/31 06:47:10;;;;;;;26.83;12.93;;;;;;;11.77;83.29;101889.44;4770083;30;20035;-86
2022/10/31 06:49:35;;;;;;;30.20;12.80;;;;;;;11.83;82.84;101896.38;4780119;29;20034;-87
2022/10/31 06:52:00;;;;;;;26.48;13.07;;;;;;;11.94;82.66;101900.47;4797884;29;20027;-87
2022/10/31 06:54:25;;;;;;;20.30;13.00;;;;;;;12.01;81.94;101895.84;4785276;29;20038;-87
2022/10/31 06:56:51;;;;;;;17.75;12.60;;;;;;;11.95;83.16;101885.44;4797061;29;20035;-86
2022/10/31 06:59:16;;;;;;;22.27;14.02;;;;;;;12.08;82.98;101896.56;4796131;29;20611;-86
2022/10/31 07:01:42;;;;;;;26.13;13.88;;;;;;;12.01;82.57;101877.28;4786001;29;20083;-86
2022/10/31 07:04:09;;;;;;;20.77;13.20;;;;;;;12.09;82.50;101885.03;4797358;29;20076;-86
2022/10/31 07:06:35;;;;;;;18.98;13.32;;;;;;;12.13;81.91;101881.38;4799058;29;20046;-88
2022/10/31 07:09:00;;;;;;;20.33;13.05;;;;;;;12.16;82.34;101875.97;4782736;29;20030;-89
2022/10/31 07:11:25;;;;;;;21.25;13.25;;;;;;;12.20;81.86;101883.78;4782382;30;20064;-88
2022/10/31 07:13:50;;;;;;;20.77;13.00;;;;;;;12.27;81.83;101887.13;4795880;29;20057;-87
2022/10/31 07:16:16;;;;;;;23.65;14.27;;;;;;;12.29;81.96;101869.38;4800383;29;20035;-88
2022/10/31 07:18:41;;;;;;;16.25;13.10;;;;;;;12.42;81.83;101894.59;4779538;29;20499;-88
2022/10/31 07:21:06;;;;;;;18.05;12.38;;;;;;;12.32;81.48;101874.59;4799025;29;20046;-88
2022/10/31 07:23:32;;;;;;;18.55;12.93;;;;;;;12.53;82.12;101899.56;4780551;29;20070;-87
2022/10/31 07:25:58;;;;;;;19.80;13.88;;;;;;;12.60;81.59;101889.66;4791456;29;20057;-88
2022/10/31 07:28:25;;;;;;;18.27;13.50;;;;;;;12.66;81.22;101897.41;4796895;29;20495;-88
2022/10/31 07:30:56;;;;;;;19.77;14.20;;;;;;;12.70;81.32;101901.69;4803506;29;20027;-88
2022/10/31 07:33:22;;;;;;;17.48;13.07;;;;;;;12.62;81.40;101885.16;4796138;29;20034;-88
2022/10/31 07:35:47;;;;;;;19.65;13.38;;;;;;;12.72;81.66;101898.06;4795168;29;20035;-88
2022/10/31 07:38:14;;;;;;;16.67;13.68;;;;;;;12.88;81.57;101916.16;4761462;30;20032;-88
2022/10/31 07:40:41;;;;;;;19.60;14.45;;;;;;;12.86;80.98;101900.28;4795936;29;20042;-87
2022/10/31 07:43:07;;;;;;;25.95;15.60;;;;;;;12.92;81.45;101905.41;4782682;29;20547;-88
2022/10/31 07:45:32;;;;;;;24.85;16.73;;;;;;;12.97;81.71;101899.94;4793565;29;20114;-88
2022/10/31 07:48:02;;;;;;;22.80;14.57;;;;;;;13.10;81.00;101893.28;4803890;29;20030;-92
2022/10/31 07:50:34;;;;;;;20.70;14.95;;;;;;;13.29;80.13;101906.84;4800051;29;20055;-95
2022/10/31 07:53:01;;;;;;;16.67;13.68;;;;;;;13.23;80.28;101891.13;4800168;29;20023;-95
2022/10/31 07:56:07;;;;;;;22.25;15.05;;;;;;;13.56;80.12;101906.78;4797340;29;20084;-95
2022/10/31 07:58:32;;;;;;;20.92;14.57;;;;;;;13.41;79.47;101876.34;4797429;29;20027;-95
2022/10/31 08:00:58;;;;;;;26.00;15.07;;;;;;;13.56;79.18;101886.41;4796964;29;20030;-95
2022/10/31 08:03:23;;;;;;;19.60;13.43;;;;;;;13.80;79.45;101892.59;4792079;29;20115;-93
2022/10/31 08:05:48;;;;;;;23.48;16.90;;;;;;;14.13;79.94;101901.16;4792228;29;20030;-94
2022/10/31 08:08:14;;;;;;;22.02;15.63;;;;;;;14.29;78.32;101914.72;4793183;29;20432;-94
2022/10/31 08:10:40;;;;;;;27.10;17.83;;;;;;;14.42;78.72;101900.00;4792391;29;20436;-94
2022/10/31 08:13:13;;;;;;;32.65;19.83;;;;;;;14.61;79.10;101924.13;4791744;29;20488;-94
2022/10/31 08:15:41;;;;;;;26.85;17.65;;;;;;;14.79;77.78;101899.44;4793352;29;20543;-95
2022/10/31 08:18:10;;;;;;;23.50;17.63;;;;;;;15.17;76.69;101898.78;4792667;29;20062;-95
2022/10/31 08:20:36;;;;;;;28.85;18.95;;;;;;;15.77;75.15;101911.25;4793776;29;20038;-95
2022/10/31 08:23:05;;;;;;;26.48;18.48;;;;;;;16.23;73.47;101889.63;4774260;30;20047;-94
2022/10/31 08:25:33;;;;;;;30.77;17.98;;;;;;;16.38;72.80;101896.91;4802384;29;20499;-95
2022/10/31 08:27:58;;;;;;;28.20;19.08;;;;;;;16.35;72.83;101877.47;4792071;29;20102;-94
2022/10/31 08:30:29;;;;;;;25.02;17.25;;;;;;;16.57;72.44;101897.75;4786313;29;20540;-94
2022/10/31 08:33:17;;;;;;;27.70;18.83;;;;;;;17.07;72.26;101897.09;4774020;30;20485;-95
2022/10/31 08:35:43;;;;;;;25.52;18.67;;;;;;;17.58;69.99;101895.34;4799162;29;20039;-96
2022/10/31 08:38:11;;;;;;;31.65;18.67;;;;;;;18.39;68.58;101914.19;4776225;29;20488;-94
2022/10/31 08:40:36;;;;;;;28.45;17.88;;;;;;;18.33;67.12;101888.63;4774461;30;20476;-95
2022/10/31 08:43:12;;;;;;;28.73;17.95;;;;;;;18.06;68.15;101890.13;4774038;29;20035;-95
2022/10/31 08:45:38;;;;;;;26.98;18.95;;;;;;;17.39;69.74;101883.84;4781144;30;20064;-94
2022/10/31 08:48:05;;;;;;;31.40;19.77;;;;;;;16.71;72.19;101865.03;4773724;30;20027;-94
2022/10/31 08:50:33;;;;;;;30.15;19.85;;;;;;;16.26;74.21;101860.09;4773844;30;20081;-94
2022/10/31 08:53:02;;;;;;;31.83;20.10;;;;;;;15.87;75.79;101847.72;4775252;30;20110;-95
2022/10/31 08:55:27;;;;;;;34.65;22.38;;;;;;;15.45;76.01;101831.84;4786780;29;20031;-94
2022/10/31 08:57:57;;;;;;;39.17;22.25;;;;;;;15.45;77.85;101843.34;4792137;29;20399;-96
2022/10/31 09:00:23;;;;;;;33.03;22.95;;;;;;;15.36;78.82;101834.91;4791810;29;20088;-95
2022/10/31 09:02:55;;;;;;;36.80;23.50;;;;;;;15.15;79.00;101840.22;4781849;30;20027;-95
2022/10/31 09:05:20;;;;;;;36.35;24.83;;;;;;;15.10;79.13;101847.53;4783547;29;20046;-94
2022/10/31 09:07:45;;;;;;;33.08;23.08;;;;;;;15.07;78.87;101842.38;4807433;29;20030;-94
2022/10/31 09:10:10;;;;;;;40.03;23.55;;;;;;;15.10;79.30;101855.53;4791015;29;20023;-96
2022/10/31 09:12:36;;;;;;;42.28;24.50;;;;;;;15.09;79.70;101850.28;4807552;29;20033;-96
2022/10/31 09:15:01;;;;;;;43.85;26.50;;;;;;;15.17;79.27;101841.03;4791620;29;20042;-95
2022/10/31 09:17:27;;;;;;;44.15;26.15;;;;;;;15.89;78.00;101858.28;4791099;29;20552;-95
2022/10/31 09:19:52;;;;;;;42.83;25.80;;;;;;;16.22;75.92;101864.72;4788481;29;20055;-95
2022/10/31 09:22:17;;;;;;;42.00;27.20;;;;;;;16.14;76.65;101874.03;4772199;30;20031;-93
2022/10/31 09:24:43;;;;;;;38.85;23.67;;;;;;;16.26;76.50;101858.28;4771755;30;20042;-94
2022/10/31 09:27:08;;;;;;;36.30;21.50;;;;;;;16.51;74.98;101841.13;4761467;30;20028;-95
2022/10/31 09:29:34;;;;;;;34.50;23.23;;;;;;;16.46;75.82;101840.44;4754973;30;20527;-93
2022/10/31 09:32:00;;;;;;;35.97;21.58;;;;;;;16.36;76.64;101826.69;4770131;30;20032;-95
2022/10/31 09:34:25;;;;;;;37.33;22.02;;;;;;;16.54;76.58;101836.47;4765939;30;20032;-95
2022/10/31 09:36:52;;;;;;;34.83;21.35;;;;;;;16.51;76.49;101825.09;4770276;30;20378;-95
2022/10/31 09:39:17;;;;;;;29.10;20.00;;;;;;;16.51;76.34;101814.44;4753704;30;20040;-94
2022/10/31 09:42:00;;;;;;;35.80;22.35;;;;;;;16.27;76.99;101796.00;4753404;30;20396;-94
2022/10/31 09:44:44;;;;;;;36.45;21.85;;;;;;;16.24;77.57;101796.16;4753610;30;20067;-94
2022/10/31 09:47:48;;;;;;;38.55;23.35;;;;;;;16.23;77.44;101789.09;4753359;30;20035;-94
2022/10/31 09:50:20;;;;;;;38.00;22.40;;;;;;;16.11;79.09;101812.81;4745694;30;20458;-94
2022/10/31 09:52:57;;;;;;;36.63;21.83;;;;;;;15.96;78.40;101801.94;4771663;30;20060;-95
2022/10/31 09:55:39;;;;;;;31.80;19.90;;;;;;;16.06;78.41;101803.22;4762501;30;20028;-93
2022/10/31 09:58:04;;;;;;;36.13;22.90;;;;;;;16.01;79.44;101796.38;4753699;30;20024;-93
2022/10/31 10:00:32;;;;;;;35.97;22.00;;;;;;;16.11;79.37;101808.34;4753876;30;20030;-94
2022/10/31 10:03:20;;;;;;;32.42;20.30;;;;;;;16.03;79.05;101794.50;4769504;30;20039;-94
2022/10/31 10:05:53;;;;;;;29.15;17.67;;;;;;;16.20;77.46;101812.38;4764384;30;20470;-95
2022/10/31 10:08:23;;;;;;;32.33;19.45;;;;;;;16.15;77.39;101796.59;4768307;30;20035;-96
2022/10/31 10:10:58;;;;;;;27.30;17.65;;;;;;;16.32;77.00;101785.97;4763744;30;20035;-94
2022/10/31 10:13:35;;;;;;;34.70;19.73;;;;;;;16.55;76.64;101783.94;4757197;30;20032;-94
2022/10/31 10:16:40;;;;;;;32.00;20.75;;;;;;;16.82;76.96;101790.59;4766269;30;20130;-95
2022/10/31 10:19:41;;;;;;;28.23;19.10;;;;;;;18.14;73.31;101770.16;4758126;30;20622;-94
2022/10/31 10:22:14;;;;;;;32.00;19.50;;;;;;;19.79;67.14;101781.63;4778658;29;20036;-94
2022/10/31 10:25:03;;;;;;;27.15;18.25;;;;;;;19.83;68.62;101755.47;4759947;30;20031;-94
2022/10/31 10:28:06;;;;;;;32.05;19.00;;;;;;;20.73;65.47;101770.13;4754633;30;20036;-94
2022/10/31 10:31:05;;;;;;;32.75;19.40;;;;;;;20.45;64.98;101761.19;4772471;30;20113;-93
2022/10/31 10:33:54;;;;;;;27.65;18.30;;;;;;;19.59;66.70;101750.69;4757834;30;20044;-93
2022/10/31 10:36:36;;;;;;;37.30;20.90;;;;;;;18.84;68.44;101743.75;4752873;30;20056;-95
2022/10/31 10:39:11;;;;;;;;;;;;;;;18.80;69.56;101743.06;4760293;30;20032;-94
2022/10/31 10:41:41;;;;;;;34.45;19.83;;;;;;;18.34;70.57;101752.94;4756089;30;19925;-93
2022/10/31 10:44:10;;;;;;;34.88;20.92;;;;;;;17.98;71.58;101734.50;4756207;30;20032;-94
2022/10/31 10:49:36;;;;;;;35.60;21.95;;;;;;;18.03;72.33;101754.69;4776069;29;20050;-94
2022/10/31 10:52:28;;;;;;;40.08;22.20;;;;;;;18.02;72.13;101744.06;4760569;30;20035;-92
2022/10/31 10:55:05;;;;;;;38.95;23.23;;;;;;;18.22;71.70;101756.31;4759954;30;20127;-94
2022/10/31 10:57:58;;;;;;;39.63;23.35;;;;;;;18.44;71.21;101746.09;4755599;30;20043;-94
2022/10/31 11:00:51;;;;;;;40.80;22.75;;;;;;;18.40;71.28;101720.44;4760887;30;20035;-94
2022/10/31 11:03:17;;;;;;;38.88;23.55;;;;;;;18.39;71.59;101737.47;4769031;30;20585;-94
2022/10/31 11:05:52;;;;;;;47.38;25.08;;;;;;;18.26;71.90;101715.88;4764825;30;20031;-94
2022/10/31 11:08:36;;;;;;;43.40;24.17;;;;;;;18.33;71.77;101727.13;4756058;30;20528;-93
2022/10/31 11:11:25;;;;;;;40.35;24.48;;;;;;;18.32;71.61;101726.22;4756565;30;20516;-94
2022/10/31 11:13:55;;;;;;;42.58;24.67;;;;;;;18.40;71.61;101723.13;4744215;30;20032;-94
2022/10/31 11:16:30;;;;;;;41.22;22.80;;;;;;;18.58;71.43;101714.00;4766809;30;20081;-93
2022/10/31 11:19:16;;;;;;;39.63;24.45;;;;;;;18.70;70.83;101712.44;4785787;29;20071;-94
2022/10/31 11:21:44;;;;;;;48.05;23.75;;;;;;;18.67;69.64;101701.88;4803943;29;20464;-93
2022/10/31 11:24:09;;;;;;;43.72;25.98;;;;;;;18.70;69.86;101728.50;4793029;29;20031;-94
2022/10/31 11:26:37;;;;;;;45.30;24.73;;;;;;;18.54;70.71;101698.19;4787725;29;20567;-94